Time;durP1;ratioP1;P1;durP2;ratioP2;P2;SDS_P1;SDS_P2;PMS_P1;PMS_P2;Temp;Humidity;BMP_temperature;BMP_pressure;BME280_temperature;BME280_humidity;BME280_pressure;Samples;Min_cycle;Max_cycle;Signal;HPM_P1;HPM_P2
2023/08/21 04:12:35;;;;;;;17.95;15.98;;;;;;;23.27;97.72;100948.34;5606200;31;82495;-56
2023/08/21 04:15:38;;;;;;;17.95;16.12;;;;;;;23.27;97.72;100948.34;5583776;32;33360;-56
2023/08/21 04:18:41;;;;;;;17.37;15.68;;;;;;;22.83;99.92;100944.81;5583919;32;34308;-56
2023/08/21 04:21:44;;;;;;;17.42;15.63;;;;;;;22.82;100.00;100943.25;5583821;32;34352;-57
2023/08/21 04:24:46;;;;;;;17.02;15.32;;;;;;;22.90;98.73;100939.53;5583838;31;33847;-56
2023/08/21 04:27:48;;;;;;;17.37;15.52;;;;;;;22.90;100.00;100945.78;5583668;32;33665;-57
2023/08/21 04:30:51;;;;;;;19.25;15.60;;;;;;;22.90;98.88;100947.75;5567746;31;33473;-57
2023/08/21 04:33:54;;;;;;;16.33;14.60;;;;;;;22.99;97.34;100945.66;5563735;32;33346;-57
2023/08/21 04:36:56;;;;;;;18.17;14.77;;;;;;;22.95;100.00;100953.00;5563856;32;33289;-57
2023/08/21 04:39:59;;;;;;;16.30;14.02;;;;;;;22.99;96.72;100956.59;5564082;32;33457;-56
2023/08/21 04:43:01;;;;;;;17.33;14.57;;;;;;;23.06;100.00;100967.72;5564118;32;34307;-57
2023/08/21 04:46:04;;;;;;;16.48;14.73;;;;;;;23.07;95.08;100957.59;5564051;32;31919;-57
2023/08/21 04:49:06;;;;;;;16.55;14.85;;;;;;;23.09;96.66;100966.25;5563756;32;33415;-56
2023/08/21 04:52:09;;;;;;;16.52;14.82;;;;;;;23.10;94.54;100967.81;5563955;32;33914;-56
2023/08/21 04:55:11;;;;;;;15.77;14.25;;;;;;;23.08;97.10;100968.19;5564233;32;33599;-57
2023/08/21 04:58:14;;;;;;;16.95;15.18;;;;;;;23.14;96.95;100968.72;5563855;32;34267;-57
2023/08/21 05:01:16;;;;;;;18.92;14.38;;;;;;;23.23;95.23;100961.12;5564987;32;34536;-57
2023/08/21 05:04:19;;;;;;;17.37;14.80;;;;;;;23.27;94.84;100967.47;5573247;31;33383;-57
2023/08/21 05:07:23;;;;;;;15.40;13.77;;;;;;;23.32;95.26;100972.69;5582881;31;33394;-57
2023/08/21 05:10:26;;;;;;;23.05;14.75;;;;;;;23.26;94.54;100976.06;5575181;31;33504;-57
2023/08/21 05:13:28;;;;;;;15.32;13.88;;;;;;;23.39;93.56;100972.09;5580636;31;34249;-56
2023/08/21 05:16:31;;;;;;;16.52;14.68;;;;;;;23.58;97.00;100972.19;5582769;32;33579;-56
2023/08/21 05:19:34;;;;;;;15.52;13.62;;;;;;;23.58;92.77;100971.38;5582852;31;34578;-57
2023/08/21 05:22:37;;;;;;;15.50;14.00;;;;;;;23.63;94.79;100982.06;5575853;31;34951;-57
2023/08/21 05:25:40;;;;;;;17.62;14.23;;;;;;;23.70;92.82;100982.25;5569901;32;34438;-57
2023/08/21 05:28:42;;;;;;;17.45;15.80;;;;;;;23.83;97.65;100986.47;5569058;32;33583;-57
2023/08/21 05:31:44;;;;;;;17.80;14.73;;;;;;;23.94;92.69;100977.72;5569535;32;33549;-57
2023/08/21 05:34:47;;;;;;;16.92;14.63;;;;;;;24.14;95.06;100988.38;5569392;32;33524;-57
2023/08/21 05:37:49;;;;;;;15.60;14.02;;;;;;;24.17;90.97;100984.09;5569445;32;34434;-57
2023/08/21 05:40:56;;;;;;;18.08;14.50;;;;;;;24.27;93.97;100988.22;5570028;32;33645;-57
2023/08/21 05:43:58;;;;;;;16.98;14.98;;;;;;;24.39;89.44;100988.91;5569241;31;33324;-57
2023/08/21 05:47:01;;;;;;;17.55;13.52;;;;;;;24.44;90.50;100985.13;5569581;32;33084;-57
2023/08/21 05:50:04;;;;;;;15.57;14.05;;;;;;;24.58;92.71;100993.63;5569217;32;33403;-57
2023/08/21 05:53:07;;;;;;;19.92;13.05;;;;;;;24.76;91.01;100987.72;5569739;32;34474;-57
2023/08/21 05:56:09;;;;;;;16.52;13.80;;;;;;;24.87;89.30;100993.41;5569552;32;34318;-56
2023/08/21 05:59:11;;;;;;;17.37;13.57;;;;;;;24.93;92.00;100998.22;5568874;32;33702;-57
2023/08/21 06:02:14;;;;;;;16.27;13.80;;;;;;;25.03;89.11;101002.34;5568935;32;33785;-57
2023/08/21 06:05:17;;;;;;;22.60;14.73;;;;;;;25.17;87.26;101004.59;5568493;32;33098;-57
2023/08/21 06:08:21;;;;;;;19.40;15.27;;;;;;;25.23;87.57;101006.69;5568777;31;33374;-57
2023/08/21 06:11:24;;;;;;;16.42;14.75;;;;;;;25.34;89.72;101006.06;5569365;31;33558;-57
2023/08/21 06:14:30;;;;;;;15.05;13.55;;;;;;;25.44;86.25;100998.03;5568799;32;34379;-57
2023/08/21 06:17:33;;;;;;;12.95;11.70;;;;;;;25.55;87.06;100998.19;5567776;31;32620;-57
2023/08/21 06:20:37;;;;;;;14.48;13.05;;;;;;;25.67;86.00;101002.72;5569461;32;33820;-57
2023/08/21 06:23:41;;;;;;;15.90;13.45;;;;;;;25.73;84.38;101009.47;5569549;32;33652;-57
2023/08/21 06:26:43;;;;;;;14.20;12.73;;;;;;;25.81;82.76;100996.66;5569141;32;34427;-57
2023/08/21 06:29:48;;;;;;;16.75;12.60;;;;;;;25.90;81.82;100994.47;5569243;31;33200;-57
2023/08/21 06:32:51;;;;;;;;;;;;;;;26.00;78.65;100997.38;5569350;32;34175;-57
2023/08/21 06:35:54;;;;;;;15.90;13.45;;;;;;;26.02;80.67;101003.25;5557213;32;33980;-57
2023/08/21 06:38:56;;;;;;;17.52;13.65;;;;;;;26.08;80.64;101003.75;5549950;32;33590;-57
2023/08/21 06:42:00;;;;;;;17.83;12.82;;;;;;;26.18;78.49;101007.81;5549771;32;33192;-57
2023/08/21 06:45:06;;;;;;;13.73;12.30;;;;;;;26.26;77.46;101015.00;5549477;32;34572;-57
2023/08/21 06:48:09;;;;;;;13.27;11.57;;;;;;;26.29;77.84;101007.94;5549298;32;33624;-57
2023/08/21 06:51:14;;;;;;;13.65;12.15;;;;;;;26.29;74.52;101006.00;5558985;32;33692;-57
2023/08/21 06:54:20;;;;;;;13.48;11.35;;;;;;;26.37;74.54;100998.66;5569144;32;34361;-57
2023/08/21 06:57:23;;;;;;;14.23;11.48;;;;;;;26.43;74.12;101005.41;5568624;32;34407;-57
2023/08/21 07:00:26;;;;;;;19.73;12.50;;;;;;;26.44;72.21;101013.28;5568529;32;33313;-57
2023/08/21 07:03:31;;;;;;;15.32;11.98;;;;;;;26.51;71.56;101001.59;5569017;32;33649;-57
2023/08/21 07:06:34;;;;;;;13.10;11.77;;;;;;;26.54;71.42;101005.56;5567224;32;34450;-57
2023/08/21 07:09:36;;;;;;;16.30;12.48;;;;;;;26.59;71.01;100996.97;5567434;32;33388;-57
2023/08/21 07:12:39;;;;;;;14.10;12.63;;;;;;;26.62;71.72;100999.78;5567978;32;33964;-57
2023/08/21 07:15:43;;;;;;;15.43;13.52;;;;;;;26.80;68.95;101002.75;5568031;32;33513;-56
2023/08/21 07:18:46;;;;;;;14.50;13.02;;;;;;;26.74;70.18;101009.75;5568982;32;33525;-57
2023/08/21 07:21:51;;;;;;;14.30;12.95;;;;;;;26.79;69.53;101001.16;5568828;32;33629;-58
2023/08/21 07:24:54;;;;;;;14.48;12.95;;;;;;;26.82;71.11;101003.16;5568716;32;33568;-57
2023/08/21 07:27:56;;;;;;;14.90;13.50;;;;;;;26.89;71.27;101002.47;5568644;32;33541;-57
2023/08/21 07:31:00;;;;;;;14.10;12.82;;;;;;;27.01;68.34;100996.66;5563057;32;34257;-57
2023/08/21 07:34:03;;;;;;;15.30;12.55;;;;;;;27.03;67.76;101007.31;5552279;32;34294;-57
2023/08/21 07:37:09;;;;;;;14.40;13.00;;;;;;;27.04;69.34;101000.63;5559247;32;34283;-57
2023/08/21 07:40:13;;;;;;;16.45;13.35;;;;;;;27.15;69.31;101004.31;5568364;32;33710;-56
2023/08/21 07:43:17;;;;;;;18.60;14.63;;;;;;;27.21;70.65;101004.75;5567767;32;34365;-57
2023/08/21 07:46:21;;;;;;;15.73;12.45;;;;;;;27.22;70.19;101003.59;5568125;32;34318;-57
2023/08/21 07:49:26;;;;;;;14.77;13.17;;;;;;;27.28;68.70;101007.56;5568200;32;34348;-57
2023/08/21 07:52:30;;;;;;;15.02;13.15;;;;;;;27.30;68.45;101011.53;5566725;32;33539;-57
2023/08/21 07:55:36;;;;;;;14.55;13.02;;;;;;;27.43;67.95;101006.56;5567825;32;33634;-58
2023/08/21 07:58:44;;;;;;;16.55;13.35;;;;;;;27.49;66.22;101004.25;5568266;32;34378;-57
2023/08/21 08:01:55;;;;;;;14.95;13.45;;;;;;;27.39;67.65;101006.53;5567972;32;34342;-57
2023/08/21 08:04:58;;;;;;;13.95;12.37;;;;;;;27.37;70.00;101013.56;5568523;32;33626;-57
2023/08/21 08:08:01;;;;;;;13.73;12.37;;;;;;;27.48;67.13;101006.19;5567988;32;34382;-57
2023/08/21 08:11:04;;;;;;;14.90;13.32;;;;;;;27.44;67.86;101010.09;5566436;32;33687;-57
2023/08/21 08:14:06;;;;;;;14.95;13.55;;;;;;;27.49;69.95;101007.78;5566446;32;33801;-57
2023/08/21 08:17:09;;;;;;;14.73;12.85;;;;;;;27.56;68.04;101005.09;5568136;32;33546;-57
2023/08/21 08:20:12;;;;;;;14.38;12.95;;;;;;;27.64;66.46;101011.44;5566958;32;33588;-57
2023/08/21 08:23:15;;;;;;;13.75;12.45;;;;;;;27.56;66.61;101010.59;5567730;32;33974;-57
2023/08/21 08:26:17;;;;;;;13.95;12.68;;;;;;;27.60;66.12;101011.41;5567036;32;33613;-56
2023/08/21 08:29:19;;;;;;;14.52;13.05;;;;;;;27.76;66.16;101005.66;5566090;32;33669;-57
2023/08/21 08:32:22;;;;;;;14.05;12.48;;;;;;;27.71;67.18;101005.97;5567814;32;34375;-57
2023/08/21 08:35:24;;;;;;;16.62;13.40;;;;;;;27.85;65.28;101005.34;5567894;32;33514;-56
2023/08/21 08:38:26;;;;;;;15.73;12.50;;;;;;;27.86;68.19;101001.41;5567708;32;33642;-57
2023/08/21 08:41:48;;;;;;;14.18;12.77;;;;;;;27.96;65.14;100999.91;5567813;32;33539;-57
2023/08/21 08:44:54;;;;;;;14.35;12.82;;;;;;;28.00;64.45;101004.25;5567451;32;34114;-56
2023/08/21 08:48:00;;;;;;;17.05;13.30;;;;;;;27.98;64.39;101000.28;5566757;32;34023;-57
2023/08/21 08:51:06;;;;;;;17.48;13.23;;;;;;;28.06;65.73;100999.97;5567402;32;34336;-57
2023/08/21 08:54:11;;;;;;;17.17;13.07;;;;;;;28.11;64.25;101004.31;5567475;32;33671;-57
2023/08/21 08:57:14;;;;;;;13.65;12.25;;;;;;;28.11;64.00;101007.06;5567910;32;34355;-57
2023/08/21 09:00:17;;;;;;;14.63;13.23;;;;;;;28.09;63.94;101007.47;5570126;32;33602;-56
2023/08/21 09:03:19;;;;;;;14.23;12.93;;;;;;;28.22;62.82;101007.94;5570103;32;33691;-57
2023/08/21 09:06:24;;;;;;;14.43;12.85;;;;;;;28.18;63.21;101006.31;5570285;32;33575;-57
2023/08/21 09:09:26;;;;;;;14.90;13.30;;;;;;;28.21;62.74;101006.34;5569976;32;33708;-57
2023/08/21 09:12:31;;;;;;;14.60;12.95;;;;;;;28.31;61.86;101004.81;5569432;32;33540;-57
2023/08/21 09:15:35;;;;;;;;;;;;;;;28.22;62.52;101007.16;5569267;32;33691;-57
2023/08/21 09:18:48;;;;;;;15.70;13.95;;;;;;;28.25;63.14;101006.37;5570085;32;33978;-57
2023/08/21 09:21:50;;;;;;;13.90;12.63;;;;;;;28.40;61.34;101005.28;5569797;32;34264;-57
2023/08/21 09:25:06;;;;;;;14.38;12.95;;;;;;;28.42;62.92;100996.63;5569772;32;33740;-57
2023/08/21 09:28:09;;;;;;;12.75;11.40;;;;;;;28.38;61.35;100996.59;5569710;32;33862;-57
2023/08/21 09:31:11;;;;;;;18.48;14.25;;;;;;;28.40;59.75;100994.25;5569547;32;33630;-57
2023/08/21 09:34:14;;;;;;;14.05;12.10;;;;;;;28.41;62.13;100984.81;5569453;32;33803;-57
2023/08/21 09:37:17;;;;;;;13.20;11.90;;;;;;;28.57;60.99;100992.75;5569718;32;33762;-57
2023/08/21 09:40:22;;;;;;;13.75;12.00;;;;;;;28.60;60.11;100988.41;5569665;32;33470;-57
2023/08/21 09:43:25;;;;;;;15.02;12.40;;;;;;;28.53;60.14;100983.66;5569131;32;33822;-57
2023/08/21 09:46:28;;;;;;;14.07;12.68;;;;;;;28.66;59.38;100975.84;5566906;32;33668;-57
2023/08/21 09:49:32;;;;;;;13.30;11.77;;;;;;;28.70;59.49;100977.41;5556429;32;34415;-57
2023/08/21 09:52:35;;;;;;;14.10;12.60;;;;;;;28.77;58.19;100966.44;5550134;32;34002;-57
2023/08/21 09:55:38;;;;;;;14.05;12.57;;;;;;;28.77;60.33;100974.69;5549795;32;33719;-57
2023/08/21 09:58:41;;;;;;;14.57;12.43;;;;;;;28.78;60.19;100965.25;5554584;32;33857;-56
2023/08/21 10:01:45;;;;;;;13.80;12.37;;;;;;;28.84;60.47;100971.16;5558018;32;33532;-57
2023/08/21 10:04:49;;;;;;;13.75;12.45;;;;;;;28.84;60.28;100965.66;5569365;32;34325;-57
2023/08/21 10:07:55;;;;;;;13.38;11.95;;;;;;;28.92;59.30;100969.22;5566389;32;33659;-57
2023/08/21 10:10:59;;;;;;;13.43;12.23;;;;;;;28.91;58.45;100965.66;5549836;32;33610;-57
2023/08/21 10:14:05;;;;;;;12.98;11.75;;;;;;;28.84;58.57;100960.13;5559217;32;33624;-57
2023/08/21 10:17:08;;;;;;;12.50;11.25;;;;;;;28.88;57.91;100960.13;5559888;32;34388;-57
2023/08/21 10:20:10;;;;;;;12.68;11.45;;;;;;;28.90;58.48;100955.78;5566423;32;34255;-57
2023/08/21 10:23:28;;;;;;;11.95;10.80;;;;;;;28.95;58.49;100949.09;5569109;32;33612;-57
2023/08/21 10:26:30;;;;;;;14.48;9.95;;;;;;;28.97;57.38;100944.78;5567776;32;33674;-57
2023/08/21 10:29:38;;;;;;;14.07;11.25;;;;;;;29.16;54.60;100945.59;5568361;32;34496;-57
2023/08/21 10:32:48;;;;;;;12.43;11.23;;;;;;;29.13;55.84;100949.94;5568663;32;33499;-57
2023/08/21 10:35:51;;;;;;;12.85;11.55;;;;;;;29.02;55.77;100943.62;5567513;32;33755;-57
2023/08/21 10:39:00;;;;;;;12.55;11.38;;;;;;;29.02;55.90;100949.94;5567215;32;33729;-57
2023/08/21 10:42:14;;;;;;;12.05;10.75;;;;;;;29.08;56.29;100941.28;5555781;32;34316;-57
2023/08/21 10:45:17;;;;;;;12.70;11.40;;;;;;;29.23;55.99;100937.31;5561276;32;32073;-57
2023/08/21 10:48:24;;;;;;;13.02;11.65;;;;;;;29.21;56.11;100945.22;5567932;32;33721;-57
2023/08/21 10:51:30;;;;;;;12.68;11.52;;;;;;;29.28;58.02;100945.22;5559472;32;34449;-57
2023/08/21 10:54:44;;;;;;;15.98;12.00;;;;;;;29.38;55.02;100938.91;5565291;32;34067;-57
2023/08/21 10:57:49;;;;;;;12.85;11.52;;;;;;;29.26;56.35;100942.84;5567739;32;33712;-57
2023/08/21 11:01:00;;;;;;;13.23;11.68;;;;;;;29.19;55.03;100934.56;5554298;32;32412;-57
2023/08/21 11:04:04;;;;;;;12.52;11.23;;;;;;;29.18;54.99;100932.19;5568319;32;34555;-57
2023/08/21 11:07:08;;;;;;;13.18;11.98;;;;;;;29.32;56.58;100932.19;5559060;32;33448;-57
2023/08/21 11:10:18;;;;;;;12.75;11.50;;;;;;;29.30;55.85;100931.00;5566278;32;33725;-58
2023/08/21 11:13:24;;;;;;;13.50;11.70;;;;;;;29.38;54.54;100932.59;5568202;32;33970;-57
2023/08/21 11:16:29;;;;;;;16.02;12.68;;;;;;;29.33;54.85;100933.75;5557584;32;34447;-58
2023/08/21 11:19:33;;;;;;;18.67;13.25;;;;;;;29.40;55.58;100924.69;5556979;32;34333;-57
2023/08/21 11:22:35;;;;;;;13.27;11.80;;;;;;;29.36;55.26;100930.22;5558920;32;32151;-57
2023/08/21 11:25:39;;;;;;;13.18;11.88;;;;;;;29.52;53.33;100923.50;5566573;32;33707;-57
2023/08/21 11:28:41;;;;;;;12.77;11.05;;;;;;;29.44;55.04;100931.81;5567905;32;34387;-57
2023/08/21 11:31:47;;;;;;;13.18;11.88;;;;;;;29.42;53.56;100919.56;5569090;32;34050;-57
2023/08/21 11:34:54;;;;;;;12.55;11.25;;;;;;;29.44;54.82;100918.00;5558617;32;33785;-57
2023/08/21 11:37:57;;;;;;;13.80;12.23;;;;;;;29.62;54.64;100917.19;5568468;32;34253;-57
2023/08/21 11:41:02;;;;;;;12.88;11.68;;;;;;;29.55;52.99;100914.44;5566538;32;33605;-57
2023/08/21 11:44:05;;;;;;;12.82;11.57;;;;;;;29.56;53.53;100907.69;5568187;32;34535;-57
2023/08/21 11:47:07;;;;;;;14.05;12.65;;;;;;;29.54;56.00;100915.59;5568316;32;33691;-57
2023/08/21 11:50:12;;;;;;;13.62;12.32;;;;;;;29.58;55.14;100910.88;5568590;32;33598;-57
2023/08/21 11:53:14;;;;;;;13.90;12.60;;;;;;;29.65;53.84;100914.44;5556820;32;34256;-57
2023/08/21 11:56:17;;;;;;;13.40;12.10;;;;;;;29.63;54.88;100904.94;5568710;32;33696;-56
2023/08/21 11:59:23;;;;;;;13.98;12.25;;;;;;;29.65;56.01;100897.84;5568540;32;34319;-57
2023/08/21 12:02:27;;;;;;;13.27;12.00;;;;;;;29.73;55.00;100904.13;5566392;32;33443;-57
2023/08/21 12:05:29;;;;;;;13.63;11.80;;;;;;;29.62;53.75;100906.16;5566371;32;33646;-57
2023/08/21 12:08:32;;;;;;;13.95;12.45;;;;;;;29.62;54.50;100903.38;5567850;32;34457;-57
2023/08/21 12:11:35;;;;;;;13.75;11.50;;;;;;;29.61;55.18;100897.06;5561014;32;34370;-57
2023/08/21 12:14:39;;;;;;;13.23;11.80;;;;;;;29.61;54.25;100888.78;5559422;32;34276;-57
2023/08/21 12:17:42;;;;;;;13.70;12.37;;;;;;;29.64;54.02;100890.75;5559387;32;33755;-57
2023/08/21 12:20:44;;;;;;;12.52;11.40;;;;;;;29.71;52.26;100889.94;5560644;32;34268;-57
2023/08/21 12:23:47;;;;;;;12.85;11.52;;;;;;;29.81;54.93;100885.59;5557865;32;34383;-57
2023/08/21 12:26:49;;;;;;;13.90;12.15;;;;;;;29.80;53.94;100886.75;5556820;32;34398;-57
2023/08/21 12:29:53;;;;;;;12.13;10.93;;;;;;;29.87;54.54;100884.78;5556292;32;34298;-57
2023/08/21 12:32:55;;;;;;;13.10;11.90;;;;;;;29.87;54.57;100884.00;5564428;32;33683;-58
2023/08/21 12:36:03;;;;;;;12.80;11.50;;;;;;;29.99;52.54;100885.50;5563946;32;34282;-57
2023/08/21 12:39:06;;;;;;;14.35;12.68;;;;;;;30.09;52.79;100877.16;5566766;32;34441;-57
2023/08/21 12:42:09;;;;;;;12.40;11.10;;;;;;;30.12;50.58;100884.66;5568811;32;33690;-58
2023/08/21 12:45:11;;;;;;;12.85;11.65;;;;;;;30.15;51.40;100883.06;5569936;32;33753;-57
2023/08/21 12:48:14;;;;;;;12.82;11.52;;;;;;;30.08;52.53;100875.59;5569581;32;34354;-57
2023/08/21 12:51:16;;;;;;;13.15;11.88;;;;;;;30.01;52.71;100875.62;5569397;32;34335;-57
2023/08/21 12:54:19;;;;;;;13.45;12.25;;;;;;;29.99;52.83;100871.69;5561753;32;33644;-57
2023/08/21 12:57:21;;;;;;;12.70;11.48;;;;;;;30.07;50.55;100864.97;5560064;32;34362;-57
2023/08/21 13:00:24;;;;;;;13.85;11.27;;;;;;;30.02;51.46;100866.16;5559898;32;33679;-57
2023/08/21 13:03:26;;;;;;;11.93;10.82;;;;;;;30.03;53.40;100866.94;5562648;32;34414;-57
2023/08/21 13:06:31;;;;;;;12.55;11.45;;;;;;;30.12;52.85;100861.75;5569175;32;33790;-57
2023/08/21 13:09:33;;;;;;;13.38;12.02;;;;;;;30.08;54.19;100861.00;5554844;32;34235;-58
2023/08/21 13:12:36;;;;;;;12.63;11.38;;;;;;;30.10;53.19;100856.66;5569637;32;33677;-57
2023/08/21 13:15:39;;;;;;;13.07;11.90;;;;;;;30.19;51.54;100856.22;5570264;32;34407;-57
2023/08/21 13:18:41;;;;;;;13.32;12.02;;;;;;;30.09;52.81;100844.00;5562133;32;34218;-57
2023/08/21 13:21:44;;;;;;;12.55;11.20;;;;;;;30.17;53.21;100842.00;5570070;32;34447;-57
2023/08/21 13:24:47;;;;;;;15.35;11.90;;;;;;;30.12;53.90;100840.41;5569786;32;33716;-57
2023/08/21 13:27:49;;;;;;;12.98;11.68;;;;;;;30.16;54.21;100835.66;5569890;32;33863;-57
2023/08/21 13:30:52;;;;;;;14.75;12.25;;;;;;;30.19;52.96;100839.63;5569406;32;34357;-57
2023/08/21 13:33:55;;;;;;;14.07;11.50;;;;;;;30.08;54.92;100836.13;5569387;32;34347;-57
2023/08/21 13:36:58;;;;;;;12.63;10.95;;;;;;;30.08;52.51;100831.38;5570141;32;33724;-57
2023/08/21 13:40:00;;;;;;;13.30;11.60;;;;;;;30.05;53.29;100832.16;5569698;32;34478;-57
2023/08/21 13:43:03;;;;;;;12.93;11.60;;;;;;;30.09;54.16;100826.63;5568674;32;33657;-57
2023/08/21 13:46:05;;;;;;;12.43;11.15;;;;;;;30.16;55.05;100832.88;5566184;32;34272;-57
2023/08/21 13:49:09;;;;;;;14.75;10.80;;;;;;;30.15;53.38;100830.53;5563671;32;34342;-57
2023/08/21 13:52:11;;;;;;;11.93;10.77;;;;;;;30.18;54.77;100824.19;5563131;32;33889;-57
2023/08/21 13:55:14;;;;;;;11.60;10.50;;;;;;;30.16;54.86;100826.56;5550493;32;33685;-57
2023/08/21 13:58:17;;;;;;;15.48;10.80;;;;;;;30.19;53.29;100826.59;5555625;32;33960;-57
2023/08/21 14:01:19;;;;;;;13.85;10.93;;;;;;;30.21;52.73;100826.19;5557822;32;33618;-58
2023/08/21 14:04:22;;;;;;;11.80;10.70;;;;;;;30.16;53.36;100827.34;5558917;32;34022;-57
2023/08/21 14:07:24;;;;;;;12.45;10.68;;;;;;;30.19;52.91;100821.06;5551144;32;34253;-57
2023/08/21 14:10:27;;;;;;;13.23;11.82;;;;;;;30.19;53.58;100823.03;5550241;32;33761;-57
2023/08/21 14:23:11;;;;;;;13.30;11.90;;;;;;;30.67;52.12;100800.97;5605441;31;122352;-57
2023/08/21 14:26:13;;;;;;;16.50;14.75;;;;;;;30.67;52.12;100800.97;5583575;31;33395;-57
2023/08/21 14:29:16;;;;;;;13.65;10.73;;;;;;;30.19;54.83;100806.44;5578438;32;34231;-57
2023/08/21 14:32:18;;;;;;;11.93;10.73;;;;;;;30.19;53.11;100806.44;5578557;32;33557;-57
2023/08/21 14:35:21;;;;;;;9.68;8.70;;;;;;;30.19;50.78;100796.16;5577424;32;32721;-57
2023/08/21 14:38:24;;;;;;;10.48;8.88;;;;;;;30.24;48.07;100794.97;5577933;31;33559;-57
2023/08/21 14:41:27;;;;;;;11.12;8.30;;;;;;;30.38;44.93;100796.84;5564170;32;33766;-57
2023/08/21 14:44:29;;;;;;;9.43;7.85;;;;;;;30.35;47.29;100792.91;5565074;32;34203;-57
2023/08/21 14:47:31;;;;;;;11.12;8.65;;;;;;;30.39;45.46;100792.87;5567386;32;33551;-57
2023/08/21 14:50:34;;;;;;;9.68;8.52;;;;;;;30.35;46.29;100787.38;5583168;32;33630;-57
2023/08/21 14:53:36;;;;;;;8.95;8.07;;;;;;;30.37;45.58;100787.00;5583270;31;33742;-57
